Time;durP1;ratioP1;P1;durP2;ratioP2;P2;SDS_P1;SDS_P2;PMS_P1;PMS_P2;Temp;Humidity;BMP_temperature;BMP_pressure;BME280_temperature;BME280_humidity;BME280_pressure;Samples;Min_cycle;Max_cycle;Signal;HPM_P1;HPM_P2
2022/08/21 00:01:37;;;;;;;15.07;5.20;;;16.10;99.90;;;;;;4917049;29;20675;-81
2022/08/21 00:04:24;;;;;;;12.48;4.78;;;16.00;99.90;;;;;;4917718;29;20047;-80
2022/08/21 00:07:10;;;;;;;18.80;6.32;;;16.00;99.90;;;;;;4934917;29;20058;-80
2022/08/21 00:09:59;;;;;;;9.10;4.13;;;16.10;99.90;;;;;;4917685;29;20146;-82
2022/08/21 00:12:47;;;;;;;15.40;5.53;;;16.00;99.90;;;;;;4918032;29;20047;-82
2022/08/21 00:15:35;;;;;;;15.85;5.78;;;16.00;99.90;;;;;;4935686;28;20069;-80
2022/08/21 00:18:22;;;;;;;11.63;5.15;;;16.00;99.90;;;;;;4918263;29;20059;-80
2022/08/21 00:21:08;;;;;;;10.32;5.00;;;16.00;99.90;;;;;;4935049;29;20051;-81
2022/08/21 00:23:54;;;;;;;14.85;5.22;;;16.00;99.90;;;;;;4935294;29;20058;-81
2022/08/21 00:26:44;;;;;;;10.95;5.47;;;16.00;99.90;;;;;;4906116;29;20107;-80
2022/08/21 00:29:30;;;;;;;14.73;5.60;;;16.00;99.90;;;;;;4935073;29;20519;-81
2022/08/21 00:32:24;;;;;;;17.73;5.70;;;16.00;99.90;;;;;;4935210;29;20142;-80
2022/08/21 00:35:15;;;;;;;13.75;5.22;;;15.90;99.90;;;;;;4918718;28;20081;-82
2022/08/21 00:38:02;;;;;;;12.43;5.55;;;15.90;99.90;;;;;;4955052;28;20062;-82
2022/08/21 00:40:52;;;;;;;12.50;6.53;;;15.90;99.90;;;;;;4953556;29;20051;-82
2022/08/21 00:43:39;;;;;;;12.23;6.30;;;15.80;99.90;;;;;;4953214;29;20055;-83
2022/08/21 00:46:26;;;;;;;13.88;6.15;;;15.80;99.90;;;;;;4955324;28;20047;-82
2022/08/21 00:49:13;;;;;;;11.55;5.90;;;15.80;99.90;;;;;;4936673;29;20047;-79
2022/08/21 00:52:00;;;;;;;13.57;6.28;;;15.80;99.90;;;;;;4952475;29;20058;-80
2022/08/21 00:54:49;;;;;;;17.48;7.13;;;15.70;99.90;;;;;;4936874;28;20063;-81
2022/08/21 00:57:45;;;;;;;16.95;6.65;;;15.70;99.90;;;;;;4954750;28;20058;-81
2022/08/21 01:00:38;;;;;;;16.73;6.28;;;15.70;99.90;;;;;;4955626;28;20043;-82
2022/08/21 01:03:25;;;;;;;13.05;6.95;;;15.70;99.90;;;;;;4936718;29;20401;-82
2022/08/21 01:06:11;;;;;;;12.80;6.60;;;15.70;99.90;;;;;;4954486;28;20066;-81
2022/08/21 01:08:57;;;;;;;14.13;7.32;;;15.60;99.90;;;;;;4939410;29;20138;-84
2022/08/21 01:11:45;;;;;;;17.65;6.70;;;15.60;99.90;;;;;;4952345;29;20114;-84
2022/08/21 01:14:32;;;;;;;15.38;6.43;;;15.60;99.90;;;;;;4938866;29;20055;-82
2022/08/21 01:17:20;;;;;;;14.05;7.50;;;15.60;99.90;;;;;;4954211;28;20043;-83
2022/08/21 01:20:10;;;;;;;12.73;6.30;;;15.60;99.90;;;;;;4939107;29;20098;-82
2022/08/21 01:22:56;;;;;;;12.57;6.40;;;15.60;99.90;;;;;;4922828;29;20058;-81
2022/08/21 01:25:42;;;;;;;15.25;7.20;;;15.50;99.90;;;;;;4936879;28;20094;-83
2022/08/21 01:28:34;;;;;;;13.82;7.00;;;15.50;99.90;;;;;;4956108;29;20047;-82
2022/08/21 01:31:24;;;;;;;14.27;6.72;;;15.50;99.90;;;;;;4958373;28;20058;-80
2022/08/21 01:34:13;;;;;;;17.35;7.10;;;15.50;99.90;;;;;;4957115;29;20054;-81
2022/08/21 01:36:59;;;;;;;17.58;7.50;;;15.50;99.90;;;;;;4941053;28;20486;-83
2022/08/21 01:39:46;;;;;;;20.40;7.35;;;15.50;99.90;;;;;;4947574;29;20062;-83
2022/08/21 01:42:33;;;;;;;11.75;7.07;;;15.50;99.90;;;;;;4958964;29;20059;-85
2022/08/21 01:45:19;;;;;;;13.57;7.38;;;15.50;99.90;;;;;;4960563;29;20055;-82
2022/08/21 01:48:06;;;;;;;14.43;7.43;;;15.50;99.90;;;;;;4958406;29;20062;-79
2022/08/21 01:50:52;;;;;;;16.80;7.28;;;15.50;99.90;;;;;;4958250;29;20114;-83
2022/08/21 01:53:38;;;;;;;12.45;6.80;;;15.40;99.90;;;;;;4958767;28;20050;-84
2022/08/21 01:56:25;;;;;;;15.00;7.00;;;15.50;99.90;;;;;;4927893;29;20583;-85
2022/08/21 01:59:12;;;;;;;15.13;7.05;;;15.40;99.90;;;;;;4959201;28;20051;-83
2022/08/21 02:01:58;;;;;;;12.45;7.13;;;15.40;99.90;;;;;;4956473;29;20040;-81
2022/08/21 02:04:44;;;;;;;16.83;7.85;;;15.40;99.90;;;;;;4940925;29;20063;-82
2022/08/21 02:07:48;;;;;;;15.18;6.65;;;15.40;99.90;;;;;;4956791;29;20538;-80
2022/08/21 02:10:34;;;;;;;15.32;7.85;;;15.40;99.90;;;;;;4940162;28;20066;-82
2022/08/21 02:13:21;;;;;;;11.80;5.95;;;15.40;99.90;;;;;;4940194;29;20397;-80
2022/08/21 02:16:08;;;;;;;16.63;7.82;;;15.40;99.90;;;;;;4939563;29;20055;-81
2022/08/21 02:18:54;;;;;;;11.40;7.40;;;15.40;99.90;;;;;;4955570;29;20101;-82
2022/08/21 02:21:41;;;;;;;13.45;7.85;;;15.30;99.90;;;;;;4955535;29;20051;-83
2022/08/21 02:24:27;;;;;;;17.13;7.95;;;15.30;99.90;;;;;;4955316;29;20055;-80
2022/08/21 02:27:13;;;;;;;13.20;7.78;;;15.30;99.90;;;;;;4956281;28;20499;-80
2022/08/21 02:29:59;;;;;;;14.38;8.38;;;15.30;99.90;;;;;;4939325;28;20062;-80
2022/08/21 02:32:46;;;;;;;16.50;7.82;;;15.30;99.90;;;;;;4957160;28;20147;-81
2022/08/21 02:35:32;;;;;;;16.38;8.40;;;15.20;99.90;;;;;;4955237;28;20063;-81
2022/08/21 02:38:27;;;;;;;13.90;8.75;;;15.30;99.90;;;;;;4953533;28;20069;-82
2022/08/21 02:41:20;;;;;;;20.80;9.20;;;15.20;99.90;;;;;;4938999;28;20714;-80
2022/08/21 02:44:06;;;;;;;12.88;7.88;;;15.20;99.90;;;;;;4938215;29;20106;-81
2022/08/21 02:46:52;;;;;;;12.10;7.82;;;15.20;99.90;;;;;;4954810;29;20094;-81
2022/08/21 02:49:39;;;;;;;16.23;8.45;;;15.20;99.90;;;;;;4954933;29;20102;-81
2022/08/21 02:52:25;;;;;;;15.27;7.63;;;15.20;99.90;;;;;;4955018;29;20055;-82
2022/08/21 02:55:11;;;;;;;18.42;8.07;;;15.20;99.90;;;;;;4939121;28;20129;-83
2022/08/21 02:57:58;;;;;;;14.98;8.48;;;15.10;99.90;;;;;;4941358;29;20059;-83
2022/08/21 03:00:45;;;;;;;18.80;9.25;;;15.10;99.90;;;;;;4954955;29;20441;-82
2022/08/21 03:03:34;;;;;;;16.45;7.97;;;15.10;99.90;;;;;;4944556;29;20054;-83
2022/08/21 03:06:22;;;;;;;13.77;8.52;;;15.10;99.90;;;;;;4955526;29;20082;-82
2022/08/21 03:09:08;;;;;;;15.73;8.88;;;15.10;99.90;;;;;;4938238;29;20169;-82
2022/08/21 03:11:54;;;;;;;14.57;8.60;;;15.10;99.90;;;;;;4955298;29;20402;-80
2022/08/21 03:14:40;;;;;;;14.18;7.65;;;15.10;99.90;;;;;;4955226;29;20058;-83
2022/08/21 03:17:27;;;;;;;16.42;9.18;;;15.00;99.90;;;;;;4956551;28;20124;-82
2022/08/21 03:20:16;;;;;;;17.40;9.23;;;15.10;99.90;;;;;;4954633;29;20416;-83
2022/08/21 03:23:03;;;;;;;17.05;9.25;;;15.10;99.90;;;;;;4938689;28;20106;-83
2022/08/21 03:25:50;;;;;;;16.40;8.88;;;15.00;99.90;;;;;;4954263;29;20058;-81
2022/08/21 03:28:37;;;;;;;16.73;8.98;;;15.10;99.90;;;;;;4953842;29;20054;-82
2022/08/21 03:31:28;;;;;;;16.40;9.07;;;15.10;99.90;;;;;;4941864;28;20048;-81
2022/08/21 03:34:14;;;;;;;13.45;8.65;;;15.00;99.90;;;;;;4955826;28;20051;-80
2022/08/21 03:37:00;;;;;;;18.73;8.95;;;15.00;99.90;;;;;;4953523;28;20059;-80
2022/08/21 03:39:47;;;;;;;20.30;9.32;;;15.00;99.90;;;;;;4937980;28;20043;-81
2022/08/21 03:42:34;;;;;;;19.27;9.68;;;15.10;99.90;;;;;;4954270;29;20054;-83
2022/08/21 03:45:22;;;;;;;17.52;9.18;;;15.00;99.90;;;;;;4940446;29;20054;-82
2022/08/21 03:48:09;;;;;;;14.50;9.63;;;15.00;99.90;;;;;;4953652;29;20070;-80
2022/08/21 03:50:56;;;;;;;15.45;8.73;;;15.00;99.90;;;;;;4936567;29;20055;-81
2022/08/21 03:53:42;;;;;;;19.95;8.95;;;15.00;99.90;;;;;;4937071;29;20062;-82
2022/08/21 03:56:28;;;;;;;16.38;8.48;;;15.00;99.90;;;;;;4955346;28;20537;-80
2022/08/21 03:59:16;;;;;;;18.75;9.20;;;15.00;99.90;;;;;;4923702;29;20047;-80
2022/08/21 04:02:04;;;;;;;14.95;8.30;;;15.00;99.90;;;;;;4955422;28;20435;-81
2022/08/21 04:04:51;;;;;;;16.88;8.88;;;15.00;99.90;;;;;;4953639;29;20564;-80
2022/08/21 04:07:37;;;;;;;18.25;8.63;;;15.00;99.90;;;;;;4937918;28;20058;-82
2022/08/21 04:10:24;;;;;;;14.95;8.35;;;14.90;99.90;;;;;;4954235;29;20146;-81
2022/08/21 04:13:10;;;;;;;17.73;9.63;;;14.90;99.90;;;;;;4954441;28;20404;-79
2022/08/21 04:16:00;;;;;;;16.67;8.95;;;14.90;99.90;;;;;;4953321;29;20617;-78
2022/08/21 04:18:46;;;;;;;18.08;7.50;;;14.90;99.90;;;;;;4941300;28;20106;-79
2022/08/21 04:21:32;;;;;;;17.25;8.23;;;14.90;99.90;;;;;;4940272;29;20138;-80
2022/08/21 04:24:19;;;;;;;18.70;8.65;;;14.90;99.90;;;;;;4954491;28;20107;-78
2022/08/21 04:27:05;;;;;;;17.50;8.25;;;14.90;99.90;;;;;;4954292;28;20051;-80
2022/08/21 04:29:51;;;;;;;19.38;8.30;;;14.90;99.90;;;;;;4952795;29;20462;-80
2022/08/21 04:32:38;;;;;;;13.07;7.22;;;14.90;99.90;;;;;;4935843;29;20054;-82
2022/08/21 04:35:25;;;;;;;17.88;9.23;;;14.90;99.90;;;;;;4952153;28;20162;-80
2022/08/21 04:38:12;;;;;;;16.90;8.85;;;14.90;99.90;;;;;;4952617;29;20491;-81
2022/08/21 04:41:00;;;;;;;18.60;8.50;;;14.90;99.90;;;;;;4924012;29;20055;-82
2022/08/21 04:43:46;;;;;;;17.52;7.63;;;14.90;99.90;;;;;;4953308;29;20496;-81
2022/08/21 04:46:33;;;;;;;15.15;7.82;;;14.90;99.90;;;;;;4953374;29;20051;-81
2022/08/21 04:49:19;;;;;;;16.77;7.03;;;14.90;99.90;;;;;;4953526;29;20039;-81
2022/08/21 04:52:05;;;;;;;17.45;7.72;;;15.00;99.90;;;;;;4955005;28;20055;-80
2022/08/21 04:54:52;;;;;;;15.52;7.68;;;15.00;99.90;;;;;;4953626;29;20048;-81
2022/08/21 04:57:40;;;;;;;13.48;7.90;;;15.00;99.90;;;;;;4953564;29;20456;-81
2022/08/21 05:00:27;;;;;;;14.65;7.13;;;15.00;99.90;;;;;;4953245;28;20408;-80
2022/08/21 05:03:16;;;;;;;17.52;8.05;;;15.10;99.90;;;;;;4952697;29;20047;-81
2022/08/21 05:06:06;;;;;;;17.77;7.82;;;15.00;99.90;;;;;;4936747;28;20051;-81
2022/08/21 05:08:55;;;;;;;17.30;8.73;;;15.00;99.90;;;;;;4952590;29;20131;-79
2022/08/21 05:11:42;;;;;;;16.02;7.53;;;15.10;99.90;;;;;;4939505;29;20526;-81
2022/08/21 05:14:29;;;;;;;15.38;7.47;;;15.10;99.90;;;;;;4937560;28;20047;-80
2022/08/21 05:17:15;;;;;;;11.40;7.72;;;15.20;99.90;;;;;;4954518;28;20434;-81
2022/08/21 05:20:01;;;;;;;12.20;7.28;;;15.30;99.90;;;;;;4923247;29;20550;-85
2022/08/21 05:22:48;;;;;;;13.95;8.35;;;15.30;99.90;;;;;;4969616;28;20063;-81
2022/08/21 05:25:35;;;;;;;18.83;8.35;;;15.40;99.90;;;;;;4973234;28;20566;-81
2022/08/21 05:28:21;;;;;;;12.38;7.00;;;15.40;99.90;;;;;;4957522;28;20050;-81
2022/08/21 05:31:07;;;;;;;22.00;8.57;;;15.50;99.90;;;;;;4972060;28;20059;-81
2022/08/21 05:33:54;;;;;;;15.82;7.85;;;15.50;99.90;;;;;;4972343;28;20047;-81
2022/08/21 05:36:40;;;;;;;20.05;8.18;;;15.60;99.90;;;;;;4970663;28;20058;-82
2022/08/21 05:39:26;;;;;;;17.55;7.80;;;15.70;99.90;;;;;;4970830;28;20082;-82
2022/08/21 05:42:13;;;;;;;16.05;7.85;;;15.70;99.90;;;;;;4972075;28;20146;-82
2022/08/21 05:44:59;;;;;;;14.90;7.47;;;15.80;99.90;;;;;;4972329;28;20472;-81
2022/08/21 05:47:45;;;;;;;13.65;6.70;;;15.80;99.90;;;;;;4972245;28;20047;-83
2022/08/21 05:50:32;;;;;;;15.20;8.00;;;15.90;99.90;;;;;;4972751;28;20050;-82
2022/08/21 05:53:19;;;;;;;18.92;7.63;;;16.00;99.90;;;;;;4973099;28;20058;-85
2022/08/21 05:56:06;;;;;;;16.73;8.60;;;16.00;99.90;;;;;;4971840;28;20097;-81
2022/08/21 05:58:53;;;;;;;15.10;7.30;;;16.10;99.90;;;;;;4973167;28;20549;-81
2022/08/21 06:01:40;;;;;;;18.60;8.95;;;16.10;99.90;;;;;;4971827;28;20410;-79
2022/08/21 06:04:27;;;;;;;19.10;9.15;;;16.20;99.90;;;;;;4970676;28;20039;-80
2022/08/21 06:07:13;;;;;;;13.48;7.40;;;16.30;99.90;;;;;;4957819;28;20504;-77
2022/08/21 06:10:00;;;;;;;13.07;6.60;;;16.40;99.90;;;;;;4971477;28;20051;-79
2022/08/21 06:12:46;;;;;;;17.20;7.78;;;16.60;99.90;;;;;;4972132;28;20042;-78
2022/08/21 06:15:32;;;;;;;14.38;7.43;;;16.70;99.90;;;;;;4947655;28;20066;-81
2022/08/21 06:18:18;;;;;;;17.17;7.18;;;16.70;99.90;;;;;;4977787;28;20046;-83
2022/08/21 06:21:06;;;;;;;15.25;7.63;;;16.70;99.90;;;;;;4963714;28;20117;-87
2022/08/21 06:23:52;;;;;;;15.02;6.53;;;16.80;99.90;;;;;;4959944;28;20057;-79
2022/08/21 06:26:38;;;;;;;18.25;7.95;;;16.90;99.90;;;;;;4958126;28;20418;-81
2022/08/21 06:29:24;;;;;;;13.52;6.88;;;17.00;99.90;;;;;;4979195;28;20043;-81
2022/08/21 06:32:12;;;;;;;16.85;7.10;;;17.20;99.90;;;;;;4975114;28;20050;-84
2022/08/21 06:34:59;;;;;;;12.00;6.70;;;17.40;99.90;;;;;;4977546;28;20055;-82
2022/08/21 06:37:45;;;;;;;13.77;6.85;;;17.50;99.90;;;;;;4955458;29;20050;-83
2022/08/21 06:40:32;;;;;;;16.63;5.90;;;17.60;99.90;;;;;;4957989;28;20051;-79
2022/08/21 06:43:18;;;;;;;15.40;6.55;;;17.80;99.90;;;;;;4956793;29;20059;-81
2022/08/21 06:46:04;;;;;;;15.18;6.35;;;17.90;99.90;;;;;;4955484;28;20559;-82
2022/08/21 06:48:51;;;;;;;14.43;6.10;;;18.00;99.90;;;;;;4957518;29;20051;-78
2022/08/21 06:51:37;;;;;;;13.73;4.78;;;18.20;99.90;;;;;;4956884;28;20047;-82
2022/08/21 06:54:23;;;;;;;16.35;5.18;;;18.30;99.90;;;;;;4955561;29;20570;-84
2022/08/21 06:57:09;;;;;;;13.55;5.03;;;18.50;99.90;;;;;;4957656;28;20047;-80
2022/08/21 06:59:56;;;;;;;16.33;5.60;;;18.60;99.90;;;;;;4957502;28;20122;-85
2022/08/21 07:02:42;;;;;;;15.45;4.68;;;18.80;99.90;;;;;;4958337;28;20058;-84
2022/08/21 07:05:29;;;;;;;14.75;4.90;;;19.00;99.90;;;;;;4954964;29;20055;-82
2022/08/21 07:08:16;;;;;;;11.90;4.03;;;19.10;99.90;;;;;;4957057;28;20071;-83
2022/08/21 07:11:10;;;;;;;16.30;4.40;;;19.40;99.90;;;;;;4957189;28;20051;-81
2022/08/21 07:13:58;;;;;;;11.60;4.07;;;19.40;99.90;;;;;;4944263;29;20125;-84
2022/08/21 07:16:44;;;;;;;15.27;4.53;;;19.60;99.90;;;;;;4962029;28;20082;-87
2022/08/21 07:19:31;;;;;;;13.63;4.15;;;19.60;99.90;;;;;;4955075;28;20079;-83
2022/08/21 07:22:20;;;;;;;13.40;4.70;;;19.80;99.90;;;;;;4941624;28;20411;-84
2022/08/21 07:25:07;;;;;;;15.35;4.05;;;19.80;99.90;;;;;;4955589;28;20459;-84
2022/08/21 07:27:53;;;;;;;13.02;3.67;;;20.00;99.90;;;;;;4955558;28;20051;-83
2022/08/21 07:30:40;;;;;;;17.65;4.65;;;20.10;99.90;;;;;;4957589;28;20073;-84
2022/08/21 07:33:28;;;;;;;15.23;4.53;;;20.20;99.90;;;;;;4957532;28;20047;-81
2022/08/21 07:36:15;;;;;;;13.20;4.15;;;20.30;99.90;;;;;;4965447;28;20059;-83
2022/08/21 07:39:01;;;;;;;12.95;3.35;;;20.30;99.90;;;;;;4957774;28;20058;-84
2022/08/21 07:41:47;;;;;;;16.83;3.60;;;20.40;99.90;;;;;;4975014;28;20042;-85
2022/08/21 07:44:36;;;;;;;10.93;3.80;;;20.60;99.90;;;;;;4944362;28;20133;-83
2022/08/21 07:47:23;;;;;;;16.70;4.63;;;20.70;99.90;;;;;;4975128;28;20051;-84
2022/08/21 07:50:12;;;;;;;12.48;4.22;;;20.70;99.90;;;;;;4974131;28;20054;-84
2022/08/21 07:52:58;;;;;;;14.32;4.20;;;20.90;99.90;;;;;;4974766;28;20074;-84
2022/08/21 07:55:44;;;;;;;11.15;3.95;;;21.00;99.90;;;;;;4974292;28;20062;-84
2022/08/21 07:58:31;;;;;;;12.98;3.72;;;21.10;99.90;;;;;;4944047;28;20055;-85
2022/08/21 08:01:18;;;;;;;11.23;3.83;;;21.20;99.90;;;;;;4974087;28;20197;-82
2022/08/21 08:04:05;;;;;;;14.38;4.70;;;21.40;99.90;;;;;;4974566;28;20058;-83
2022/08/21 08:06:51;;;;;;;11.90;4.20;;;21.50;99.90;;;;;;4960522;28;20503;-83
2022/08/21 08:09:37;;;;;;;9.77;3.53;;;21.60;99.90;;;;;;4973758;28;20561;-83
2022/08/21 08:12:28;;;;;;;12.60;3.75;;;21.60;99.90;;;;;;4973832;28;20046;-85
2022/08/21 08:15:17;;;;;;;12.40;4.10;;;21.80;99.90;;;;;;4960776;28;20585;-85
2022/08/21 08:18:04;;;;;;;14.85;3.60;;;21.90;99.90;;;;;;4959806;28;20050;-84
2022/08/21 08:20:50;;;;;;;13.45;4.22;;;22.00;99.90;;;;;;4973854;28;20562;-85
2022/08/21 08:23:37;;;;;;;12.40;3.13;;;22.20;99.90;;;;;;4974538;28;20043;-85
2022/08/21 08:26:23;;;;;;;15.88;4.15;;;22.20;99.90;;;;;;4972615;28;20051;-85
2022/08/21 08:29:09;;;;;;;12.48;4.05;;;21.90;99.90;;;;;;4973429;28;20514;-85
2022/08/21 08:31:55;;;;;;;13.38;3.22;;;21.80;99.90;;;;;;4954974;28;20047;-84
2022/08/21 08:34:41;;;;;;;9.75;3.35;;;21.90;99.90;;;;;;4972662;28;20113;-85
2022/08/21 08:37:28;;;;;;;11.27;3.63;;;21.80;99.90;;;;;;4972644;28;20065;-85
2022/08/21 08:40:37;;;;;;;11.95;3.88;;;21.90;99.90;;;;;;4971271;28;20058;-84
2022/08/21 08:43:23;;;;;;;13.93;3.20;;;22.30;99.90;;;;;;4972571;28;20057;-85
2022/08/21 08:46:15;;;;;;;15.95;3.10;;;22.50;99.90;;;;;;4956165;28;20062;-85
2022/08/21 08:49:29;;;;;;;24.13;4.28;;;22.70;99.90;;;;;;4972442;28;20517;-85
2022/08/21 08:52:26;;;;;;;11.45;3.28;;;22.80;99.90;;;;;;4955535;28;20051;-83
2022/08/21 08:55:23;;;;;;;12.75;3.00;;;22.80;99.90;;;;;;4955536;28;20192;-84
2022/08/21 08:58:22;;;;;;;8.93;2.40;;;23.00;99.90;;;;;;4972570;28;20098;-84
2022/08/21 09:01:18;;;;;;;12.77;2.90;;;23.20;99.90;;;;;;4958735;28;20054;-85
2022/08/21 09:04:05;;;;;;;12.32;3.45;;;23.60;99.90;;;;;;4973246;28;20046;-85
2022/08/21 09:07:28;;;;;;;14.68;3.25;;;23.60;99.90;;;;;;4972884;28;20051;-86
2022/08/21 09:10:30;;;;;;;10.52;3.30;;;23.20;99.90;;;;;;4975426;28;20062;-85
2022/08/21 09:13:33;;;;;;;9.23;2.55;;;23.30;99.90;;;;;;4956324;28;20130;-86
2022/08/21 09:16:23;;;;;;;10.88;2.65;;;23.20;99.90;;;;;;4954678;28;20113;-84
2022/08/21 09:19:46;;;;;;;12.05;2.30;;;23.10;99.90;;;;;;4972669;28;20047;-83
2022/08/21 09:22:51;;;;;;;7.78;2.47;;;23.30;99.90;;;;;;4973029;28;20450;-84
2022/08/21 09:25:48;;;;;;;11.85;2.53;;;23.10;99.90;;;;;;4971978;28;20055;-86
2022/08/21 09:28:35;;;;;;;11.82;2.08;;;23.00;99.90;;;;;;4972974;28;20069;-80
2022/08/21 09:31:34;;;;;;;11.70;2.60;;;23.20;99.90;;;;;;4954367;28;20080;-82
2022/08/21 09:34:29;;;;;;;11.63;2.95;;;23.80;99.90;;;;;;4972137;28;20054;-80
2022/08/21 09:37:18;;;;;;;14.50;2.72;;;24.30;99.90;;;;;;4971914;28;20499;-80
2022/08/21 09:40:37;;;;;;;10.48;2.40;;;24.80;99.90;;;;;;4975079;28;20050;-84
2022/08/21 09:43:27;;;;;;;9.73;2.53;;;24.90;99.90;;;;;;4957448;28;20051;-79
2022/08/21 09:46:27;;;;;;;11.38;2.85;;;24.30;99.90;;;;;;4972290;28;20104;-81
2022/08/21 09:49:28;;;;;;;15.27;3.80;;;24.10;99.90;;;;;;4965196;28;20126;-84
2022/08/21 09:52:25;;;;;;;9.00;2.25;;;23.80;99.90;;;;;;4973137;28;20082;-79
2022/08/21 09:57:38;;;;;;;7.95;2.70;;;23.80;99.30;;;;;;4966354;28;20039;-81
2022/08/21 09:58:32;;;;;;;8.80;2.25;;;24.10;99.10;;;;;;4963184;28;20055;-82
2022/08/21 10:01:22;;;;;;;8.57;2.50;;;24.80;99.10;;;;;;4952483;28;20047;-85
2022/08/21 10:04:09;;;;;;;11.45;2.95;;;24.70;97.90;;;;;;4967460;28;20134;-84
2022/08/21 10:07:10;;;;;;;8.95;2.03;;;24.40;97.70;;;;;;4979222;28;20126;-84
2022/08/21 10:10:01;;;;;;;8.65;2.20;;;24.00;98.10;;;;;;4964498;28;20047;-82
2022/08/21 10:13:13;;;;;;;11.38;3.30;;;23.60;99.30;;;;;;4955860;28;20066;-78
2022/08/21 10:16:28;;;;;;;9.70;2.28;;;23.90;99.90;;;;;;4949725;28;20058;-82
2022/08/21 10:19:42;;;;;;;14.45;2.85;;;24.50;99.20;;;;;;4949055;28;20054;-82
2022/08/21 10:22:54;;;;;;;10.27;2.22;;;24.80;96.90;;;;;;4949993;28;20503;-86
2022/08/21 10:25:47;;;;;;;7.70;2.10;;;24.80;96.50;;;;;;4963587;28;20047;-81
2022/08/21 10:28:54;;;;;;;10.85;2.42;;;24.50;97.10;;;;;;4952532;28;20117;-78
2022/08/21 10:31:55;;;;;;;9.45;2.92;;;24.50;98.10;;;;;;4966321;28;20046;-80
2022/08/21 10:34:57;;;;;;;9.77;1.70;;;24.50;97.50;;;;;;4956702;28;20076;-77
2022/08/21 10:38:02;;;;;;;7.68;1.98;;;24.70;95.70;;;;;;4963928;28;20792;-74
2022/08/21 10:41:27;;;;;;;8.52;2.00;;;24.60;96.90;;;;;;4955510;28;20054;-79
2022/08/21 10:44:23;;;;;;;6.82;2.40;;;24.40;97.20;;;;;;4905881;28;20044;-76
2022/08/21 10:47:22;;;;;;;6.75;2.03;;;24.30;97.70;;;;;;4954406;29;20581;-79
2022/08/21 10:50:19;;;;;;;9.43;2.42;;;24.00;98.40;;;;;;4954465;29;20106;-77
2022/08/21 10:53:25;;;;;;;9.93;1.80;;;24.00;99.20;;;;;;4938226;29;20055;-79
2022/08/21 10:56:29;;;;;;;11.82;2.10;;;23.90;98.70;;;;;;4936625;29;20586;-78
2022/08/21 10:59:45;;;;;;;10.68;2.72;;;24.00;98.90;;;;;;4937035;29;20093;-81
2022/08/21 11:02:54;;;;;;;7.18;1.80;;;24.00;99.30;;;;;;4956612;29;20055;-81
2022/08/21 11:05:45;;;;;;;6.35;1.45;;;24.40;98.80;;;;;;4956075;28;20186;-75
2022/08/21 11:08:50;;;;;;;3.08;0.80;;;24.60;97.50;;;;;;4955216;29;20395;-75
2022/08/21 11:11:44;;;;;;;6.68;1.10;;;24.80;93.20;;;;;;4956224;29;20043;-78
2022/08/21 11:14:58;;;;;;;5.88;1.05;;;25.00;94.50;;;;;;4938623;29;20059;-77
2022/08/21 11:17:55;;;;;;;5.07;1.40;;;25.30;93.60;;;;;;4938614;29;20055;-77
2022/08/21 11:21:03;;;;;;;6.22;1.50;;;25.80;94.60;;;;;;4955118;29;20102;-77
2022/08/21 11:24:14;;;;;;;6.38;1.42;;;26.20;94.00;;;;;;4937985;29;20106;-83
2022/08/21 11:27:45;;;;;;;5.95;1.30;;;26.80;93.40;;;;;;4955044;29;20051;-77
2022/08/21 11:31:12;;;;;;;10.48;1.67;;;26.90;93.40;;;;;;4951709;29;20047;-73
2022/08/21 11:34:01;;;;;;;8.25;2.22;;;26.80;93.70;;;;;;4937400;28;20149;-76
2022/08/21 11:37:13;;;;;;;8.30;1.42;;;27.70;94.40;;;;;;4936423;29;20051;-85
2022/08/21 11:40:24;;;;;;;7.72;1.40;;;27.50;93.00;;;;;;4926693;29;20057;-83
2022/08/21 11:43:31;;;;;;;7.70;1.40;;;27.30;93.40;;;;;;4959702;28;20062;-83
2022/08/21 11:46:41;;;;;;;10.13;1.73;;;27.20;93.90;;;;;;4955345;29;20051;-85
2022/08/21 11:49:49;;;;;;;6.45;1.30;;;27.60;93.20;;;;;;4952958;29;20043;-84
2022/08/21 11:53:04;;;;;;;6.88;1.27;;;27.70;91.30;;;;;;4936830;29;20062;-86
2022/08/21 11:56:11;;;;;;;;;;;27.70;92.10;;;;;;4938129;29;20731;-85
2022/08/21 11:59:04;;;;;;;6.13;1.45;;;28.10;91.80;;;;;;4939462;28;19926;-85
2022/08/21 12:01:53;;;;;;;5.72;1.30;;;28.20;91.30;;;;;;4954336;29;20044;-86
2022/08/21 12:04:53;;;;;;;5.60;1.63;;;28.40;91.00;;;;;;4954871;29;20051;-87
2022/08/21 12:07:42;;;;;;;6.88;1.52;;;28.40;90.80;;;;;;4956740;28;20047;-85
2022/08/21 12:10:42;;;;;;;7.28;1.60;;;28.60;90.10;;;;;;4954438;28;20114;-85
2022/08/21 12:13:32;;;;;;;13.45;2.03;;;29.00;90.10;;;;;;4957631;29;20121;-86
2022/08/21 12:16:30;;;;;;;8.52;1.42;;;29.20;88.60;;;;;;4956462;28;20059;-87
2022/08/21 12:19:19;;;;;;;8.48;1.40;;;29.00;89.00;;;;;;4953922;29;20055;-85
2022/08/21 12:22:06;;;;;;;7.40;1.90;;;29.20;88.50;;;;;;4952675;29;20495;-86
2022/08/21 12:25:09;;;;;;;7.45;1.60;;;29.20;90.00;;;;;;4954803;28;20047;-87
2022/08/21 12:28:08;;;;;;;9.40;1.30;;;29.50;89.60;;;;;;4954138;28;20043;-86
2022/08/21 12:30:54;;;;;;;6.50;1.65;;;29.80;88.50;;;;;;4936925;29;20504;-85
2022/08/21 12:33:41;;;;;;;5.22;1.45;;;30.50;86.40;;;;;;4954125;29;20082;-85
2022/08/21 12:36:41;;;;;;;8.38;2.38;;;30.40;86.00;;;;;;4953129;28;20504;-83
2022/08/21 12:39:31;;;;;;;5.80;1.38;;;30.70;84.90;;;;;;4954747;28;20098;-86
2022/08/21 12:42:19;;;;;;;4.80;1.50;;;30.50;82.50;;;;;;4954325;29;20146;-85
2022/08/21 12:45:19;;;;;;;8.25;1.98;;;30.30;81.50;;;;;;4937711;29;20047;-84
2022/08/21 12:48:28;;;;;;;5.45;1.98;;;30.70;81.10;;;;;;4939592;29;20102;-85
2022/08/21 12:51:17;;;;;;;6.65;1.83;;;30.90;80.60;;;;;;4926319;28;20043;-85
2022/08/21 12:54:04;;;;;;;6.07;1.42;;;30.80;81.90;;;;;;4954391;28;20058;-85
2022/08/21 12:57:02;;;;;;;5.05;1.38;;;30.80;82.00;;;;;;4941074;29;20077;-84
2022/08/21 12:59:53;;;;;;;6.30;1.50;;;31.50;81.40;;;;;;4955545;29;20055;-85
2022/08/21 13:02:48;;;;;;;9.85;1.67;;;31.60;79.50;;;;;;4957612;29;20518;-85
2022/08/21 13:05:36;;;;;;;6.18;1.75;;;30.90;80.00;;;;;;4957419;29;20057;-85
2022/08/21 13:08:25;;;;;;;8.75;1.90;;;31.20;80.80;;;;;;4960147;28;20055;-85
2022/08/21 13:11:17;;;;;;;4.47;1.27;;;30.90;80.30;;;;;;4925907;29;20047;-85
2022/08/21 13:14:04;;;;;;;6.57;1.80;;;30.30;80.10;;;;;;4952957;28;20059;-84
2022/08/21 13:17:03;;;;;;;7.13;1.10;;;30.50;81.40;;;;;;4936899;28;20063;-84
2022/08/21 13:19:57;;;;;;;7.00;1.30;;;30.40;79.80;;;;;;4952138;28;20093;-84
2022/08/21 13:22:44;;;;;;;3.72;1.02;;;31.50;79.70;;;;;;4952194;28;20384;-84
2022/08/21 13:25:35;;;;;;;5.88;1.25;;;31.80;76.30;;;;;;4936403;28;20051;-85
2022/08/21 13:28:22;;;;;;;8.30;1.52;;;31.90;76.30;;;;;;4935958;29;20051;-82
2022/08/21 13:31:10;;;;;;;5.68;1.50;;;32.70;75.80;;;;;;4953614;28;20051;-83
2022/08/21 13:33:56;;;;;;;6.95;1.23;;;33.10;74.90;;;;;;4953694;28;20048;-81
2022/08/21 13:36:43;;;;;;;5.15;1.35;;;33.70;74.40;;;;;;4956018;28;20063;-83
2022/08/21 13:39:31;;;;;;;8.00;1.60;;;33.30;72.30;;;;;;4956569;29;20059;-80
2022/08/21 13:42:19;;;;;;;8.40;1.80;;;33.30;71.60;;;;;;4956856;28;20058;-88
2022/08/21 13:45:37;;;;;;;11.07;2.60;;;33.90;71.30;;;;;;4952903;29;20058;-81
2022/08/21 13:48:28;;;;;;;6.85;1.70;;;34.00;70.20;;;;;;4952860;29;20047;-81
2022/08/21 13:51:15;;;;;;;6.38;1.88;;;34.50;67.90;;;;;;4953045;28;20566;-82
2022/08/21 13:54:12;;;;;;;6.75;1.58;;;34.30;68.30;;;;;;4953483;28;20049;-82
2022/08/21 13:56:59;;;;;;;9.77;1.67;;;34.40;68.00;;;;;;4952303;29;20047;-83
2022/08/21 13:59:46;;;;;;;5.25;1.67;;;35.00;67.70;;;;;;4953568;28;20051;-81
2022/08/21 14:02:40;;;;;;;9.65;1.92;;;35.00;67.70;;;;;;4951495;29;20523;-81
2022/08/21 14:05:28;;;;;;;;;;;35.60;68.30;;;;;;4953755;28;20051;-85
2022/08/21 14:08:31;;;;;;;7.80;2.08;;;35.90;65.80;;;;;;4953858;28;19922;-81
2022/08/21 14:11:17;;;;;;;5.82;1.50;;;35.90;64.60;;;;;;4953104;28;20048;-79
2022/08/21 14:14:40;;;;;;;5.55;1.85;;;35.80;64.60;;;;;;4952759;28;20420;-81
2022/08/21 14:17:32;;;;;;;6.82;1.92;;;35.80;62.60;;;;;;4878102;29;20063;-83
2022/08/21 14:20:30;;;;;;;7.30;1.42;;;35.70;61.60;;;;;;4954300;28;20051;-82
2022/08/21 14:23:27;;;;;;;6.30;1.85;;;35.80;63.60;;;;;;4953499;29;20051;-84
2022/08/21 14:26:17;;;;;;;8.93;2.05;;;35.50;61.40;;;;;;4953350;28;20081;-83
2022/08/21 14:29:08;;;;;;;7.00;1.48;;;35.10;62.20;;;;;;4952819;29;20098;-87
2022/08/21 14:31:59;;;;;;;8.20;2.50;;;35.10;63.70;;;;;;4937016;29;20051;-87
2022/08/21 14:34:45;;;;;;;5.88;1.80;;;35.20;61.30;;;;;;4955108;28;20050;-82
2022/08/21 14:37:32;;;;;;;9.63;1.88;;;34.70;62.30;;;;;;4957958;28;20462;-81
2022/08/21 14:40:21;;;;;;;8.27;1.80;;;34.30;62.60;;;;;;4955223;29;20415;-81
2022/08/21 14:43:08;;;;;;;4.88;1.33;;;33.70;63.20;;;;;;4954184;29;20109;-82
2022/08/21 14:45:55;;;;;;;7.45;1.70;;;33.00;63.90;;;;;;4955766;28;20051;-84